sensor_id;sensor_type;location;lat;lon;timestamp;temperature;humidity
11047;DHT22;5576;50.008;10.596;2022-07-19T00:02:23;19.20;99.90
11047;DHT22;5576;50.008;10.596;2022-07-19T00:04:49;19.10;99.90
11047;DHT22;5576;50.008;10.596;2022-07-19T00:07:15;19.00;99.90
11047;DHT22;5576;50.008;10.596;2022-07-19T00:09:40;18.70;99.90
11047;DHT22;5576;50.008;10.596;2022-07-19T00:12:06;18.80;99.90
11047;DHT22;5576;50.008;10.596;2022-07-19T00:14:32;18.80;99.90
11047;DHT22;5576;50.008;10.596;2022-07-19T00:16:58;21.80;99.90
11047;DHT22;5576;50.008;10.596;2022-07-19T00:19:23;18.60;99.90
11047;DHT22;5576;50.008;10.596;2022-07-19T00:21:49;19.70;99.90
11047;DHT22;5576;50.008;10.596;2022-07-19T00:24:15;19.30;99.90
11047;DHT22;5576;50.008;10.596;2022-07-19T00:26:40;18.50;99.90
11047;DHT22;5576;50.008;10.596;2022-07-19T00:29:06;18.30;99.90
11047;DHT22;5576;50.008;10.596;2022-07-19T00:31:32;18.30;99.90
11047;DHT22;5576;50.008;10.596;2022-07-19T00:33:58;18.30;99.90
11047;DHT22;5576;50.008;10.596;2022-07-19T00:36:24;18.30;99.90
11047;DHT22;5576;50.008;10.596;2022-07-19T00:38:50;18.40;99.90
11047;DHT22;5576;50.008;10.596;2022-07-19T00:41:15;18.10;99.90
11047;DHT22;5576;50.008;10.596;2022-07-19T00:43:42;19.00;99.90
11047;DHT22;5576;50.008;10.596;2022-07-19T00:46:15;18.00;99.90
11047;DHT22;5576;50.008;10.596;2022-07-19T00:48:41;18.00;99.90
11047;DHT22;5576;50.008;10.596;2022-07-19T00:51:08;18.00;99.90
11047;DHT22;5576;50.008;10.596;2022-07-19T00:53:37;18.00;99.90
11047;DHT22;5576;50.008;10.596;2022-07-19T00:56:04;17.80;99.90
11047;DHT22;5576;50.008;10.596;2022-07-19T00:58:31;17.90;99.90
11047;DHT22;5576;50.008;10.596;2022-07-19T01:00:57;17.90;99.90
11047;DHT22;5576;50.008;10.596;2022-07-19T01:03:24;18.00;99.90
11047;DHT22;5576;50.008;10.596;2022-07-19T01:05:50;18.00;99.90
11047;DHT22;5576;50.008;10.596;2022-07-19T01:08:17;17.80;99.90
11047;DHT22;5576;50.008;10.596;2022-07-19T01:10:43;17.90;99.90
11047;DHT22;5576;50.008;10.596;2022-07-19T01:13:12;18.00;99.90
11047;DHT22;5576;50.008;10.596;2022-07-19T01:15:39;18.00;99.90
11047;DHT22;5576;50.008;10.596;2022-07-19T01:18:05;18.10;99.90
11047;DHT22;5576;50.008;10.596;2022-07-19T01:20:31;18.10;99.90
11047;DHT22;5576;50.008;10.596;2022-07-19T01:22:57;20.80;99.90
11047;DHT22;5576;50.008;10.596;2022-07-19T01:25:26;18.00;99.90
11047;DHT22;5576;50.008;10.596;2022-07-19T01:27:52;18.00;99.90
11047;DHT22;5576;50.008;10.596;2022-07-19T01:30:20;18.10;99.90
11047;DHT22;5576;50.008;10.596;2022-07-19T01:32:47;18.10;99.90
11047;DHT22;5576;50.008;10.596;2022-07-19T01:35:13;18.00;99.90
11047;DHT22;5576;50.008;10.596;2022-07-19T01:37:39;17.90;99.90
11047;DHT22;5576;50.008;10.596;2022-07-19T01:40:07;17.70;99.90
11047;DHT22;5576;50.008;10.596;2022-07-19T01:42:34;17.80;99.90
11047;DHT22;5576;50.008;10.596;2022-07-19T01:45:00;17.80;99.90
11047;DHT22;5576;50.008;10.596;2022-07-19T01:47:25;17.80;99.90
11047;DHT22;5576;50.008;10.596;2022-07-19T01:49:51;16.70;99.90
11047;DHT22;5576;50.008;10.596;2022-07-19T01:52:17;17.70;99.90
11047;DHT22;5576;50.008;10.596;2022-07-19T01:54:43;17.70;99.90
11047;DHT22;5576;50.008;10.596;2022-07-19T01:57:09;17.80;99.90
11047;DHT22;5576;50.008;10.596;2022-07-19T01:59:36;17.60;99.90
11047;DHT22;5576;50.008;10.596;2022-07-19T02:02:03;17.60;99.90
11047;DHT22;5576;50.008;10.596;2022-07-19T02:04:28;17.50;99.90
11047;DHT22;5576;50.008;10.596;2022-07-19T02:06:54;17.50;99.90
11047;DHT22;5576;50.008;10.596;2022-07-19T02:09:20;17.60;99.90
11047;DHT22;5576;50.008;10.596;2022-07-19T02:11:46;17.60;99.90
11047;DHT22;5576;50.008;10.596;2022-07-19T02:14:12;14.60;99.90
11047;DHT22;5576;50.008;10.596;2022-07-19T02:16:38;19.70;99.90
11047;DHT22;5576;50.008;10.596;2022-07-19T02:19:05;17.50;99.90
11047;DHT22;5576;50.008;10.596;2022-07-19T02:21:32;17.50;99.90
11047;DHT22;5576;50.008;10.596;2022-07-19T02:23:58;17.60;99.90
11047;DHT22;5576;50.008;10.596;2022-07-19T02:26:24;17.30;99.90
11047;DHT22;5576;50.008;10.596;2022-07-19T02:28:50;17.50;99.90
11047;DHT22;5576;50.008;10.596;2022-07-19T02:31:15;17.50;99.90
11047;DHT22;5576;50.008;10.596;2022-07-19T02:33:41;17.40;99.90
11047;DHT22;5576;50.008;10.596;2022-07-19T02:36:07;17.40;99.90
11047;DHT22;5576;50.008;10.596;2022-07-19T02:38:33;17.30;99.90
11047;DHT22;5576;50.008;10.596;2022-07-19T02:40:59;17.30;99.90
11047;DHT22;5576;50.008;10.596;2022-07-19T02:43:24;17.30;99.90
11047;DHT22;5576;50.008;10.596;2022-07-19T02:45:50;17.20;99.90
11047;DHT22;5576;50.008;10.596;2022-07-19T02:48:16;17.30;99.90
11047;DHT22;5576;50.008;10.596;2022-07-19T02:50:42;15.20;99.90
11047;DHT22;5576;50.008;10.596;2022-07-19T02:53:08;17.20;99.90
11047;DHT22;5576;50.008;10.596;2022-07-19T02:55:34;17.20;99.90
11047;DHT22;5576;50.008;10.596;2022-07-19T02:57:59;17.00;99.90
11047;DHT22;5576;50.008;10.596;2022-07-19T03:00:25;17.20;99.90
11047;DHT22;5576;50.008;10.596;2022-07-19T03:02:51;17.20;99.90
11047;DHT22;5576;50.008;10.596;2022-07-19T03:05:17;17.10;99.90
11047;DHT22;5576;50.008;10.596;2022-07-19T03:07:43;17.10;99.90
11047;DHT22;5576;50.008;10.596;2022-07-19T03:10:09;17.10;99.90
11047;DHT22;5576;50.008;10.596;2022-07-19T03:12:35;20.90;99.90
11047;DHT22;5576;50.008;10.596;2022-07-19T03:15:01;17.10;99.90
11047;DHT22;5576;50.008;10.596;2022-07-19T03:17:26;17.00;99.90
11047;DHT22;5576;50.008;10.596;2022-07-19T03:19:52;16.90;99.90
11047;DHT22;5576;50.008;10.596;2022-07-19T03:22:18;16.90;99.90
11047;DHT22;5576;50.008;10.596;2022-07-19T03:24:43;16.90;99.90
11047;DHT22;5576;50.008;10.596;2022-07-19T03:27:09;17.00;99.90
11047;DHT22;5576;50.008;10.596;2022-07-19T03:29:35;17.00;99.90
11047;DHT22;5576;50.008;10.596;2022-07-19T03:32:00;17.00;99.90
11047;DHT22;5576;50.008;10.596;2022-07-19T03:34:27;17.00;99.90
11047;DHT22;5576;50.008;10.596;2022-07-19T03:36:54;16.80;99.90
11047;DHT22;5576;50.008;10.596;2022-07-19T03:39:21;16.70;99.90
11047;DHT22;5576;50.008;10.596;2022-07-19T03:41:46;16.70;99.90
11047;DHT22;5576;50.008;10.596;2022-07-19T03:44:12;16.70;99.90
11047;DHT22;5576;50.008;10.596;2022-07-19T03:46:38;16.80;99.90
11047;DHT22;5576;50.008;10.596;2022-07-19T03:49:04;16.70;99.90
11047;DHT22;5576;50.008;10.596;2022-07-19T03:51:30;16.80;99.90
11047;DHT22;5576;50.008;10.596;2022-07-19T03:53:55;16.90;99.90
11047;DHT22;5576;50.008;10.596;2022-07-19T03:56:21;16.50;99.90
11047;DHT22;5576;50.008;10.596;2022-07-19T03:58:48;16.90;99.90
11047;DHT22;5576;50.008;10.596;2022-07-19T04:01:15;16.90;99.90
11047;DHT22;5576;50.008;10.596;2022-07-19T04:03:41;16.80;99.90
11047;DHT22;5576;50.008;10.596;2022-07-19T04:06:09;16.70;99.90
11047;DHT22;5576;50.008;10.596;2022-07-19T04:08:35;16.60;99.90
11047;DHT22;5576;50.008;10.596;2022-07-19T04:11:01;16.60;99.90
11047;DHT22;5576;50.008;10.596;2022-07-19T04:13:28;16.60;99.90
11047;DHT22;5576;50.008;10.596;2022-07-19T04:15:54;16.60;99.90
11047;DHT22;5576;50.008;10.596;2022-07-19T04:18:19;16.60;99.90
11047;DHT22;5576;50.008;10.596;2022-07-19T04:20:45;16.70;99.90
11047;DHT22;5576;50.008;10.596;2022-07-19T04:23:11;17.20;99.90
11047;DHT22;5576;50.008;10.596;2022-07-19T04:25:36;16.70;99.90
11047;DHT22;5576;50.008;10.596;2022-07-19T04:28:03;16.80;99.90
11047;DHT22;5576;50.008;10.596;2022-07-19T04:30:29;16.80;99.90
11047;DHT22;5576;50.008;10.596;2022-07-19T04:32:55;16.90;99.90
11047;DHT22;5576;50.008;10.596;2022-07-19T04:35:21;17.00;99.90
11047;DHT22;5576;50.008;10.596;2022-07-19T04:37:47;16.90;99.90
11047;DHT22;5576;50.008;10.596;2022-07-19T04:40:13;17.00;99.90
11047;DHT22;5576;50.008;10.596;2022-07-19T04:42:38;17.00;99.90
11047;DHT22;5576;50.008;10.596;2022-07-19T04:45:05;16.90;99.90
11047;DHT22;5576;50.008;10.596;2022-07-19T04:47:31;16.90;99.90
11047;DHT22;5576;50.008;10.596;2022-07-19T04:49:57;16.90;99.90
11047;DHT22;5576;50.008;10.596;2022-07-19T04:52:22;18.00;99.90
11047;DHT22;5576;50.008;10.596;2022-07-19T04:54:48;18.50;99.90
11047;DHT22;5576;50.008;10.596;2022-07-19T04:57:14;16.80;99.90
11047;DHT22;5576;50.008;10.596;2022-07-19T04:59:40;16.90;99.90
11047;DHT22;5576;50.008;10.596;2022-07-19T05:02:06;16.90;99.90
11047;DHT22;5576;50.008;10.596;2022-07-19T05:04:32;15.80;99.90
11047;DHT22;5576;50.008;10.596;2022-07-19T05:06:58;17.00;99.90
11047;DHT22;5576;50.008;10.596;2022-07-19T05:09:25;17.10;99.90
11047;DHT22;5576;50.008;10.596;2022-07-19T05:11:51;17.10;99.90
11047;DHT22;5576;50.008;10.596;2022-07-19T05:14:18;17.30;99.90
11047;DHT22;5576;50.008;10.596;2022-07-19T05:16:44;18.40;99.90
11047;DHT22;5576;50.008;10.596;2022-07-19T05:19:11;17.30;99.90
11047;DHT22;5576;50.008;10.596;2022-07-19T05:21:36;17.40;99.90
11047;DHT22;5576;50.008;10.596;2022-07-19T05:24:02;17.50;99.90
11047;DHT22;5576;50.008;10.596;2022-07-19T05:26:28;17.50;99.90
11047;DHT22;5576;50.008;10.596;2022-07-19T05:28:54;17.60;99.90
11047;DHT22;5576;50.008;10.596;2022-07-19T05:31:20;17.70;99.90
11047;DHT22;5576;50.008;10.596;2022-07-19T05:33:45;17.70;99.90
11047;DHT22;5576;50.008;10.596;2022-07-19T05:36:11;17.90;99.90
11047;DHT22;5576;50.008;10.596;2022-07-19T05:38:38;18.00;99.90
11047;DHT22;5576;50.008;10.596;2022-07-19T05:41:05;18.20;99.90
11047;DHT22;5576;50.008;10.596;2022-07-19T05:43:31;18.20;99.90
11047;DHT22;5576;50.008;10.596;2022-07-19T05:45:57;18.20;99.90
11047;DHT22;5576;50.008;10.596;2022-07-19T05:48:22;18.30;99.90
11047;DHT22;5576;50.008;10.596;2022-07-19T05:50:48;18.50;99.90
11047;DHT22;5576;50.008;10.596;2022-07-19T05:53:14;18.60;99.90
11047;DHT22;5576;50.008;10.596;2022-07-19T05:55:43;18.80;99.90
11047;DHT22;5576;50.008;10.596;2022-07-19T05:58:09;18.10;99.90
11047;DHT22;5576;50.008;10.596;2022-07-19T06:00:34;19.00;99.90
11047;DHT22;5576;50.008;10.596;2022-07-19T06:03:00;15.90;99.90
11047;DHT22;5576;50.008;10.596;2022-07-19T06:05:26;19.10;99.90
11047;DHT22;5576;50.008;10.596;2022-07-19T06:07:51;19.30;99.90
11047;DHT22;5576;50.008;10.596;2022-07-19T06:10:17;19.30;99.90
11047;DHT22;5576;50.008;10.596;2022-07-19T06:12:43;19.30;99.90
11047;DHT22;5576;50.008;10.596;2022-07-19T06:15:09;19.40;99.90
11047;DHT22;5576;50.008;10.596;2022-07-19T06:17:35;19.50;99.90
11047;DHT22;5576;50.008;10.596;2022-07-19T06:20:01;19.60;99.90
11047;DHT22;5576;50.008;10.596;2022-07-19T06:22:29;19.70;99.90
11047;DHT22;5576;50.008;10.596;2022-07-19T06:24:57;19.60;99.90
11047;DHT22;5576;50.008;10.596;2022-07-19T06:27:22;23.40;99.90
11047;DHT22;5576;50.008;10.596;2022-07-19T06:29:48;20.00;99.90
11047;DHT22;5576;50.008;10.596;2022-07-19T06:32:14;20.10;99.90
11047;DHT22;5576;50.008;10.596;2022-07-19T06:34:40;20.30;99.90
11047;DHT22;5576;50.008;10.596;2022-07-19T06:37:05;20.50;99.90
11047;DHT22;5576;50.008;10.596;2022-07-19T06:39:31;20.80;99.90
11047;DHT22;5576;50.008;10.596;2022-07-19T06:41:57;20.70;99.90
11047;DHT22;5576;50.008;10.596;2022-07-19T06:44:23;18.20;99.90
11047;DHT22;5576;50.008;10.596;2022-07-19T06:46:48;20.80;99.90
11047;DHT22;5576;50.008;10.596;2022-07-19T06:49:15;20.80;99.90
11047;DHT22;5576;50.008;10.596;2022-07-19T06:51:40;20.90;99.90
11047;DHT22;5576;50.008;10.596;2022-07-19T06:54:06;21.00;99.90
11047;DHT22;5576;50.008;10.596;2022-07-19T06:56:32;21.10;99.90
11047;DHT22;5576;50.008;10.596;2022-07-19T06:58:57;21.40;99.90
11047;DHT22;5576;50.008;10.596;2022-07-19T07:01:23;23.20;99.90
11047;DHT22;5576;50.008;10.596;2022-07-19T07:03:49;21.60;99.90
11047;DHT22;5576;50.008;10.596;2022-07-19T07:06:15;21.90;99.90
11047;DHT22;5576;50.008;10.596;2022-07-19T07:08:41;22.10;99.90
11047;DHT22;5576;50.008;10.596;2022-07-19T07:11:06;22.30;99.90
11047;DHT22;5576;50.008;10.596;2022-07-19T07:13:32;22.30;99.90
11047;DHT22;5576;50.008;10.596;2022-07-19T07:15:58;22.40;99.90
11047;DHT22;5576;50.008;10.596;2022-07-19T07:18:24;22.60;99.90
11047;DHT22;5576;50.008;10.596;2022-07-19T07:20:49;22.60;99.90
11047;DHT22;5576;50.008;10.596;2022-07-19T07:23:15;23.80;99.90
11047;DHT22;5576;50.008;10.596;2022-07-19T07:25:41;22.90;99.90
11047;DHT22;5576;50.008;10.596;2022-07-19T07:28:07;23.00;99.90
11047;DHT22;5576;50.008;10.596;2022-07-19T07:30:33;23.30;99.90
11047;DHT22;5576;50.008;10.596;2022-07-19T07:32:58;23.30;99.90
11047;DHT22;5576;50.008;10.596;2022-07-19T07:35:24;24.90;99.90
11047;DHT22;5576;50.008;10.596;2022-07-19T07:37:50;23.20;99.90
11047;DHT22;5576;50.008;10.596;2022-07-19T07:40:16;23.50;99.90
11047;DHT22;5576;50.008;10.596;2022-07-19T07:42:42;23.60;99.90
11047;DHT22;5576;50.008;10.596;2022-07-19T07:45:07;23.50;99.90
11047;DHT22;5576;50.008;10.596;2022-07-19T07:47:35;23.60;99.90
11047;DHT22;5576;50.008;10.596;2022-07-19T07:50:02;23.90;99.90
11047;DHT22;5576;50.008;10.596;2022-07-19T07:52:28;23.80;99.90
11047;DHT22;5576;50.008;10.596;2022-07-19T07:54:53;26.30;99.90
11047;DHT22;5576;50.008;10.596;2022-07-19T07:57:19;20.90;99.90
11047;DHT22;5576;50.008;10.596;2022-07-19T07:59:45;26.00;99.90
11047;DHT22;5576;50.008;10.596;2022-07-19T08:02:10;25.20;99.90
11047;DHT22;5576;50.008;10.596;2022-07-19T08:04:36;23.50;99.90
11047;DHT22;5576;50.008;10.596;2022-07-19T08:07:02;24.50;99.90
11047;DHT22;5576;50.008;10.596;2022-07-19T08:09:27;24.70;99.90
11047;DHT22;5576;50.008;10.596;2022-07-19T08:11:53;24.70;99.90
11047;DHT22;5576;50.008;10.596;2022-07-19T08:14:19;27.20;99.90
11047;DHT22;5576;50.008;10.596;2022-07-19T08:16:44;24.80;99.90
11047;DHT22;5576;50.008;10.596;2022-07-19T08:19:10;25.00;99.90
11047;DHT22;5576;50.008;10.596;2022-07-19T08:21:36;25.10;99.90
11047;DHT22;5576;50.008;10.596;2022-07-19T08:24:01;28.00;99.90
11047;DHT22;5576;50.008;10.596;2022-07-19T08:26:27;25.30;99.90
11047;DHT22;5576;50.008;10.596;2022-07-19T08:28:53;25.40;99.90
11047;DHT22;5576;50.008;10.596;2022-07-19T08:31:18;24.30;99.90
11047;DHT22;5576;50.008;10.596;2022-07-19T08:33:44;25.80;99.90
11047;DHT22;5576;50.008;10.596;2022-07-19T08:36:10;25.90;99.90
11047;DHT22;5576;50.008;10.596;2022-07-19T08:38:38;23.60;99.90
11047;DHT22;5576;50.008;10.596;2022-07-19T08:41:04;26.10;99.90
11047;DHT22;5576;50.008;10.596;2022-07-19T08:43:30;26.10;99.90
11047;DHT22;5576;50.008;10.596;2022-07-19T08:46:01;26.10;99.90
11047;DHT22;5576;50.008;10.596;2022-07-19T08:48:32;26.40;99.90
11047;DHT22;5576;50.008;10.596;2022-07-19T08:51:00;22.80;99.90
11047;DHT22;5576;50.008;10.596;2022-07-19T08:53:31;26.50;99.90
11047;DHT22;5576;50.008;10.596;2022-07-19T08:55:58;26.60;99.90
11047;DHT22;5576;50.008;10.596;2022-07-19T08:58:24;26.80;99.90
11047;DHT22;5576;50.008;10.596;2022-07-19T09:00:49;27.10;99.90
11047;DHT22;5576;50.008;10.596;2022-07-19T09:03:16;27.20;99.90
11047;DHT22;5576;50.008;10.596;2022-07-19T09:05:41;27.20;99.90
11047;DHT22;5576;50.008;10.596;2022-07-19T09:08:09;27.30;99.90
11047;DHT22;5576;50.008;10.596;2022-07-19T09:10:39;27.20;99.90
11047;DHT22;5576;50.008;10.596;2022-07-19T09:13:10;27.30;99.90
11047;DHT22;5576;50.008;10.596;2022-07-19T09:18:10;27.40;99.90
11047;DHT22;5576;50.008;10.596;2022-07-19T09:20:37;27.30;99.90
11047;DHT22;5576;50.008;10.596;2022-07-19T09:23:03;27.30;99.90
11047;DHT22;5576;50.008;10.596;2022-07-19T09:25:34;27.30;99.90
11047;DHT22;5576;50.008;10.596;2022-07-19T09:28:00;27.70;99.90
11047;DHT22;5576;50.008;10.596;2022-07-19T09:30:35;28.10;99.40
11047;DHT22;5576;50.008;10.596;2022-07-19T09:33:07;28.20;99.90
11047;DHT22;5576;50.008;10.596;2022-07-19T09:35:36;28.30;99.80
11047;DHT22;5576;50.008;10.596;2022-07-19T09:38:24;28.40;98.60
11047;DHT22;5576;50.008;10.596;2022-07-19T09:40:52;28.60;97.80
11047;DHT22;5576;50.008;10.596;2022-07-19T09:43:19;28.70;97.70
11047;DHT22;5576;50.008;10.596;2022-07-19T09:45:45;28.80;96.40
11047;DHT22;5576;50.008;10.596;2022-07-19T09:48:11;27.80;95.60
11047;DHT22;5576;50.008;10.596;2022-07-19T09:50:37;30.70;96.20
11047;DHT22;5576;50.008;10.596;2022-07-19T09:53:04;28.90;96.70
11047;DHT22;5576;50.008;10.596;2022-07-19T09:55:31;29.10;93.30
11047;DHT22;5576;50.008;10.596;2022-07-19T09:57:59;29.10;93.90
11047;DHT22;5576;50.008;10.596;2022-07-19T10:00:26;29.50;93.40
11047;DHT22;5576;50.008;10.596;2022-07-19T10:03:00;29.50;94.50
11047;DHT22;5576;50.008;10.596;2022-07-19T10:05:27;29.60;93.90
11047;DHT22;5576;50.008;10.596;2022-07-19T10:07:54;29.90;93.40
11047;DHT22;5576;50.008;10.596;2022-07-19T10:10:21;29.80;92.20
11047;DHT22;5576;50.008;10.596;2022-07-19T10:12:48;29.80;93.10
11047;DHT22;5576;50.008;10.596;2022-07-19T10:15:16;29.80;93.70
11047;DHT22;5576;50.008;10.596;2022-07-19T10:17:53;29.90;92.10
11047;DHT22;5576;50.008;10.596;2022-07-19T10:20:21;29.60;93.10
11047;DHT22;5576;50.008;10.596;2022-07-19T10:22:50;29.50;93.70
11047;DHT22;5576;50.008;10.596;2022-07-19T10:25:17;29.50;93.30
11047;DHT22;5576;50.008;10.596;2022-07-19T10:27:47;30.00;91.90
11047;DHT22;5576;50.008;10.596;2022-07-19T10:32:43;30.40;91.60
11047;DHT22;5576;50.008;10.596;2022-07-19T10:37:46;30.70;89.10
11047;DHT22;5576;50.008;10.596;2022-07-19T10:43:14;31.00;90.00
11047;DHT22;5576;50.008;10.596;2022-07-19T10:48:36;31.30;89.90
11047;DHT22;5576;50.008;10.596;2022-07-19T10:51:03;31.20;87.70
11047;DHT22;5576;50.008;10.596;2022-07-19T10:53:57;31.30;89.90
11047;DHT22;5576;50.008;10.596;2022-07-19T10:56:25;31.30;87.40
11047;DHT22;5576;50.008;10.596;2022-07-19T11:01:23;31.50;84.10
11047;DHT22;5576;50.008;10.596;2022-07-19T11:03:51;31.60;87.50
11047;DHT22;5576;50.008;10.596;2022-07-19T11:08:51;31.80;83.90
11047;DHT22;5576;50.008;10.596;2022-07-19T11:11:18;31.10;85.00
11047;DHT22;5576;50.008;10.596;2022-07-19T11:13:47;31.80;82.50
11047;DHT22;5576;50.008;10.596;2022-07-19T11:16:14;31.90;84.10
11047;DHT22;5576;50.008;10.596;2022-07-19T11:18:40;32.20;83.00
11047;DHT22;5576;50.008;10.596;2022-07-19T11:21:07;32.50;81.00
11047;DHT22;5576;50.008;10.596;2022-07-19T11:23:35;32.60;81.60
11047;DHT22;5576;50.008;10.596;2022-07-19T11:26:13;32.70;79.90
11047;DHT22;5576;50.008;10.596;2022-07-19T11:28:41;32.70;80.60
11047;DHT22;5576;50.008;10.596;2022-07-19T11:31:16;32.60;82.70
11047;DHT22;5576;50.008;10.596;2022-07-19T11:33:43;32.50;81.80
11047;DHT22;5576;50.008;10.596;2022-07-19T11:36:09;34.40;80.20
11047;DHT22;5576;50.008;10.596;2022-07-19T11:38:39;32.90;78.60
11047;DHT22;5576;50.008;10.596;2022-07-19T11:41:13;32.90;79.20
11047;DHT22;5576;50.008;10.596;2022-07-19T11:43:39;32.90;77.80
11047;DHT22;5576;50.008;10.596;2022-07-19T11:46:05;32.80;77.00
11047;DHT22;5576;50.008;10.596;2022-07-19T11:48:31;32.90;78.30
11047;DHT22;5576;50.008;10.596;2022-07-19T11:51:07;33.00;75.90
11047;DHT22;5576;50.008;10.596;2022-07-19T11:53:37;33.10;76.50
11047;DHT22;5576;50.008;10.596;2022-07-19T11:56:05;33.20;78.20
11047;DHT22;5576;50.008;10.596;2022-07-19T11:58:31;33.20;77.00
11047;DHT22;5576;50.008;10.596;2022-07-19T12:01:03;33.10;76.00
11047;DHT22;5576;50.008;10.596;2022-07-19T12:03:29;33.10;77.10
11047;DHT22;5576;50.008;10.596;2022-07-19T12:05:57;34.30;78.10
11047;DHT22;5576;50.008;10.596;2022-07-19T12:10:58;33.60;76.30
11047;DHT22;5576;50.008;10.596;2022-07-19T12:13:33;33.50;74.90
11047;DHT22;5576;50.008;10.596;2022-07-19T12:16:07;33.50;74.50
11047;DHT22;5576;50.008;10.596;2022-07-19T12:18:53;33.50;73.10
11047;DHT22;5576;50.008;10.596;2022-07-19T12:21:26;33.90;71.60
11047;DHT22;5576;50.008;10.596;2022-07-19T12:24:12;34.00;73.30
11047;DHT22;5576;50.008;10.596;2022-07-19T12:26:41;34.00;73.50
11047;DHT22;5576;50.008;10.596;2022-07-19T12:29:28;34.20;68.70
11047;DHT22;5576;50.008;10.596;2022-07-19T12:32:00;33.40;69.50
11047;DHT22;5576;50.008;10.596;2022-07-19T12:34:27;34.30;70.40
11047;DHT22;5576;50.008;10.596;2022-07-19T12:36:53;34.50;71.10
11047;DHT22;5576;50.008;10.596;2022-07-19T12:42:01;34.60;71.20
11047;DHT22;5576;50.008;10.596;2022-07-19T12:44:27;34.60;73.00
11047;DHT22;5576;50.008;10.596;2022-07-19T12:46:53;34.70;70.40
11047;DHT22;5576;50.008;10.596;2022-07-19T12:49:19;34.80;69.50
11047;DHT22;5576;50.008;10.596;2022-07-19T12:51:45;34.80;68.80
11047;DHT22;5576;50.008;10.596;2022-07-19T12:54:11;34.90;70.60
11047;DHT22;5576;50.008;10.596;2022-07-19T12:56:38;34.90;69.70
11047;DHT22;5576;50.008;10.596;2022-07-19T12:59:04;34.90;69.10
11047;DHT22;5576;50.008;10.596;2022-07-19T13:01:50;35.00;67.60
11047;DHT22;5576;50.008;10.596;2022-07-19T13:04:16;35.10;69.10
11047;DHT22;5576;50.008;10.596;2022-07-19T13:06:41;35.10;67.20
11047;DHT22;5576;50.008;10.596;2022-07-19T13:09:07;35.10;67.80
11047;DHT22;5576;50.008;10.596;2022-07-19T13:11:35;35.00;67.20
11047;DHT22;5576;50.008;10.596;2022-07-19T13:14:01;35.10;66.70
11047;DHT22;5576;50.008;10.596;2022-07-19T13:16:28;35.20;67.10
11047;DHT22;5576;50.008;10.596;2022-07-19T13:18:53;35.30;66.00
11047;DHT22;5576;50.008;10.596;2022-07-19T13:21:19;35.30;64.40
11047;DHT22;5576;50.008;10.596;2022-07-19T13:23:47;35.30;66.90
11047;DHT22;5576;50.008;10.596;2022-07-19T13:26:12;35.40;66.20
11047;DHT22;5576;50.008;10.596;2022-07-19T13:28:38;35.50;66.40
11047;DHT22;5576;50.008;10.596;2022-07-19T13:31:04;35.50;64.90
11047;DHT22;5576;50.008;10.596;2022-07-19T13:33:30;37.30;68.60
11047;DHT22;5576;50.008;10.596;2022-07-19T13:35:56;35.60;66.00
11047;DHT22;5576;50.008;10.596;2022-07-19T13:38:21;35.70;64.10
11047;DHT22;5576;50.008;10.596;2022-07-19T13:40:47;35.70;64.20
11047;DHT22;5576;50.008;10.596;2022-07-19T13:43:13;36.60;66.80
11047;DHT22;5576;50.008;10.596;2022-07-19T13:45:39;35.60;65.90
11047;DHT22;5576;50.008;10.596;2022-07-19T13:48:05;35.70;65.30
11047;DHT22;5576;50.008;10.596;2022-07-19T13:50:31;35.80;65.70
11047;DHT22;5576;50.008;10.596;2022-07-19T13:52:58;35.70;64.00
11047;DHT22;5576;50.008;10.596;2022-07-19T13:55:25;35.60;65.60
11047;DHT22;5576;50.008;10.596;2022-07-19T13:57:50;37.00;64.80
11047;DHT22;5576;50.008;10.596;2022-07-19T14:00:16;35.80;62.60
11047;DHT22;5576;50.008;10.596;2022-07-19T14:02:44;34.80;62.80
11047;DHT22;5576;50.008;10.596;2022-07-19T14:05:10;36.00;64.60
11047;DHT22;5576;50.008;10.596;2022-07-19T14:07:36;36.00;62.60
11047;DHT22;5576;50.008;10.596;2022-07-19T14:10:03;36.00;63.40
11047;DHT22;5576;50.008;10.596;2022-07-19T14:12:29;36.10;64.40
11047;DHT22;5576;50.008;10.596;2022-07-19T14:14:55;36.10;64.70
11047;DHT22;5576;50.008;10.596;2022-07-19T14:17:21;36.10;63.60
11047;DHT22;5576;50.008;10.596;2022-07-19T14:19:47;35.90;61.60
11047;DHT22;5576;50.008;10.596;2022-07-19T14:22:14;35.30;62.50
11047;DHT22;5576;50.008;10.596;2022-07-19T14:24:41;36.00;62.50
11047;DHT22;5576;50.008;10.596;2022-07-19T14:27:07;35.60;62.50
11047;DHT22;5576;50.008;10.596;2022-07-19T14:29:33;36.30;61.30
11047;DHT22;5576;50.008;10.596;2022-07-19T14:31:59;38.10;63.70
11047;DHT22;5576;50.008;10.596;2022-07-19T14:34:25;36.30;63.10
11047;DHT22;5576;50.008;10.596;2022-07-19T14:36:50;36.40;63.40
11047;DHT22;5576;50.008;10.596;2022-07-19T14:39:16;36.40;60.30
11047;DHT22;5576;50.008;10.596;2022-07-19T14:41:42;36.40;61.50
11047;DHT22;5576;50.008;10.596;2022-07-19T14:44:08;36.40;61.90
11047;DHT22;5576;50.008;10.596;2022-07-19T14:46:34;36.50;60.60
11047;DHT22;5576;50.008;10.596;2022-07-19T14:49:00;35.70;59.50
11047;DHT22;5576;50.008;10.596;2022-07-19T14:51:25;36.40;58.40
11047;DHT22;5576;50.008;10.596;2022-07-19T14:53:51;36.50;60.80
11047;DHT22;5576;50.008;10.596;2022-07-19T14:56:17;36.50;59.70
11047;DHT22;5576;50.008;10.596;2022-07-19T14:58:43;36.50;59.50
11047;DHT22;5576;50.008;10.596;2022-07-19T15:01:10;36.50;58.20
11047;DHT22;5576;50.008;10.596;2022-07-19T15:03:35;36.60;57.60
11047;DHT22;5576;50.008;10.596;2022-07-19T15:06:01;34.60;59.20
11047;DHT22;5576;50.008;10.596;2022-07-19T15:08:27;36.70;59.10
11047;DHT22;5576;50.008;10.596;2022-07-19T15:10:53;36.60;58.70
11047;DHT22;5576;50.008;10.596;2022-07-19T15:13:19;36.70;60.00
11047;DHT22;5576;50.008;10.596;2022-07-19T15:15:45;36.70;58.00
11047;DHT22;5576;50.008;10.596;2022-07-19T15:18:10;36.70;58.30
11047;DHT22;5576;50.008;10.596;2022-07-19T15:20:37;36.70;58.20
11047;DHT22;5576;50.008;10.596;2022-07-19T15:23:03;37.50;59.20
11047;DHT22;5576;50.008;10.596;2022-07-19T15:25:29;36.70;60.50
11047;DHT22;5576;50.008;10.596;2022-07-19T15:27:55;36.70;59.00
11047;DHT22;5576;50.008;10.596;2022-07-19T15:30:21;36.60;57.20
11047;DHT22;5576;50.008;10.596;2022-07-19T15:32:47;36.50;59.10
11047;DHT22;5576;50.008;10.596;2022-07-19T15:35:12;36.90;60.60
11047;DHT22;5576;50.008;10.596;2022-07-19T15:37:39;35.20;58.80
11047;DHT22;5576;50.008;10.596;2022-07-19T15:40:06;36.30;57.70
11047;DHT22;5576;50.008;10.596;2022-07-19T15:42:43;36.50;57.90
11047;DHT22;5576;50.008;10.596;2022-07-19T15:45:09;36.60;59.00
11047;DHT22;5576;50.008;10.596;2022-07-19T15:47:34;36.60;58.80
11047;DHT22;5576;50.008;10.596;2022-07-19T15:50:00;36.60;58.40
11047;DHT22;5576;50.008;10.596;2022-07-19T15:52:26;36.20;58.60